sensor_id;sensor_type;location;lat;lon;timestamp;P1;durP1;ratioP1;P2;durP2;ratioP2
72493;SDS011;60520;49.182;-0.348;2023-11-18T00:01:49;3.38;;;2.00;;
72493;SDS011;60520;49.182;-0.348;2023-11-18T00:04:18;3.78;;;1.90;;
72493;SDS011;60520;49.182;-0.348;2023-11-18T00:06:45;3.50;;;1.73;;
72493;SDS011;60520;49.182;-0.348;2023-11-18T00:09:12;4.97;;;1.73;;
72493;SDS011;60520;49.182;-0.348;2023-11-18T00:11:40;2.35;;;1.70;;
72493;SDS011;60520;49.182;-0.348;2023-11-18T00:14:07;3.03;;;1.67;;
72493;SDS011;60520;49.182;-0.348;2023-11-18T00:16:36;5.22;;;1.75;;
72493;SDS011;60520;49.182;-0.348;2023-11-18T00:19:03;2.80;;;1.73;;
72493;SDS011;60520;49.182;-0.348;2023-11-18T00:21:32;3.33;;;2.05;;
72493;SDS011;60520;49.182;-0.348;2023-11-18T00:24:01;2.88;;;1.50;;
72493;SDS011;60520;49.182;-0.348;2023-11-18T00:26:28;4.60;;;1.75;;
72493;SDS011;60520;49.182;-0.348;2023-11-18T00:28:55;2.45;;;1.45;;
72493;SDS011;60520;49.182;-0.348;2023-11-18T00:31:22;3.60;;;1.70;;
72493;SDS011;60520;49.182;-0.348;2023-11-18T00:33:50;4.00;;;1.90;;
72493;SDS011;60520;49.182;-0.348;2023-11-18T00:36:17;3.08;;;1.80;;
72493;SDS011;60520;49.182;-0.348;2023-11-18T00:38:46;3.03;;;1.60;;
72493;SDS011;60520;49.182;-0.348;2023-11-18T00:41:14;3.30;;;1.80;;
72493;SDS011;60520;49.182;-0.348;2023-11-18T00:43:42;3.17;;;1.58;;
72493;SDS011;60520;49.182;-0.348;2023-11-18T00:46:09;3.45;;;1.70;;
72493;SDS011;60520;49.182;-0.348;2023-11-18T00:48:36;4.85;;;1.70;;
72493;SDS011;60520;49.182;-0.348;2023-11-18T00:51:04;3.80;;;1.50;;
72493;SDS011;60520;49.182;-0.348;2023-11-18T00:53:31;3.78;;;1.70;;
72493;SDS011;60520;49.182;-0.348;2023-11-18T00:55:59;3.38;;;1.55;;
72493;SDS011;60520;49.182;-0.348;2023-11-18T00:58:27;3.88;;;1.70;;
72493;SDS011;60520;49.182;-0.348;2023-11-18T01:00:55;2.38;;;1.27;;
72493;SDS011;60520;49.182;-0.348;2023-11-18T01:03:22;3.03;;;1.85;;
72493;SDS011;60520;49.182;-0.348;2023-11-18T01:05:49;2.92;;;1.67;;
72493;SDS011;60520;49.182;-0.348;2023-11-18T01:08:16;2.33;;;1.45;;
72493;SDS011;60520;49.182;-0.348;2023-11-18T01:10:43;2.22;;;1.40;;
72493;SDS011;60520;49.182;-0.348;2023-11-18T01:13:11;3.17;;;1.60;;
72493;SDS011;60520;49.182;-0.348;2023-11-18T01:15:38;4.00;;;1.60;;
72493;SDS011;60520;49.182;-0.348;2023-11-18T01:18:05;4.15;;;1.55;;
72493;SDS011;60520;49.182;-0.348;2023-11-18T01:20:32;2.92;;;1.58;;
72493;SDS011;60520;49.182;-0.348;2023-11-18T01:22:59;3.80;;;1.63;;
72493;SDS011;60520;49.182;-0.348;2023-11-18T01:25:26;3.55;;;1.80;;
72493;SDS011;60520;49.182;-0.348;2023-11-18T01:27:54;2.22;;;1.30;;
72493;SDS011;60520;49.182;-0.348;2023-11-18T01:30:23;3.28;;;1.70;;
72493;SDS011;60520;49.182;-0.348;2023-11-18T01:32:51;2.78;;;1.50;;
72493;SDS011;60520;49.182;-0.348;2023-11-18T01:35:19;2.42;;;1.40;;
72493;SDS011;60520;49.182;-0.348;2023-11-18T01:37:47;3.40;;;1.50;;
72493;SDS011;60520;49.182;-0.348;2023-11-18T01:40:14;2.60;;;1.58;;
72493;SDS011;60520;49.182;-0.348;2023-11-18T01:42:42;2.75;;;1.50;;
72493;SDS011;60520;49.182;-0.348;2023-11-18T01:45:11;3.63;;;1.80;;
72493;SDS011;60520;49.182;-0.348;2023-11-18T01:47:40;3.83;;;1.67;;
72493;SDS011;60520;49.182;-0.348;2023-11-18T01:50:08;2.60;;;1.55;;
72493;SDS011;60520;49.182;-0.348;2023-11-18T01:52:36;2.22;;;1.33;;
72493;SDS011;60520;49.182;-0.348;2023-11-18T01:55:04;3.03;;;1.60;;
72493;SDS011;60520;49.182;-0.348;2023-11-18T01:57:32;2.22;;;1.45;;
72493;SDS011;60520;49.182;-0.348;2023-11-18T01:59:59;2.80;;;1.40;;
72493;SDS011;60520;49.182;-0.348;2023-11-18T02:02:31;3.55;;;1.50;;
72493;SDS011;60520;49.182;-0.348;2023-11-18T02:05:01;3.00;;;1.70;;
72493;SDS011;60520;49.182;-0.348;2023-11-18T02:07:31;4.05;;;1.67;;
72493;SDS011;60520;49.182;-0.348;2023-11-18T02:09:58;2.17;;;1.40;;
72493;SDS011;60520;49.182;-0.348;2023-11-18T02:12:27;3.50;;;1.50;;
72493;SDS011;60520;49.182;-0.348;2023-11-18T02:14:59;2.53;;;1.33;;
72493;SDS011;60520;49.182;-0.348;2023-11-18T02:17:27;2.42;;;1.48;;
72493;SDS011;60520;49.182;-0.348;2023-11-18T02:19:55;2.85;;;1.35;;
72493;SDS011;60520;49.182;-0.348;2023-11-18T02:22:25;2.83;;;1.40;;
72493;SDS011;60520;49.182;-0.348;2023-11-18T02:24:52;5.68;;;1.70;;
72493;SDS011;60520;49.182;-0.348;2023-11-18T02:27:21;3.33;;;1.40;;
72493;SDS011;60520;49.182;-0.348;2023-11-18T02:29:51;2.45;;;1.38;;
72493;SDS011;60520;49.182;-0.348;2023-11-18T02:32:18;2.25;;;1.40;;
72493;SDS011;60520;49.182;-0.348;2023-11-18T02:34:49;2.58;;;1.30;;
72493;SDS011;60520;49.182;-0.348;2023-11-18T02:37:18;3.50;;;1.75;;
72493;SDS011;60520;49.182;-0.348;2023-11-18T02:39:46;2.25;;;1.30;;
72493;SDS011;60520;49.182;-0.348;2023-11-18T02:42:16;2.72;;;1.52;;
72493;SDS011;60520;49.182;-0.348;2023-11-18T02:44:44;2.35;;;1.45;;
72493;SDS011;60520;49.182;-0.348;2023-11-18T02:47:14;3.83;;;1.40;;
72493;SDS011;60520;49.182;-0.348;2023-11-18T02:49:41;2.25;;;1.50;;
72493;SDS011;60520;49.182;-0.348;2023-11-18T02:52:08;3.08;;;1.40;;
72493;SDS011;60520;49.182;-0.348;2023-11-18T02:54:35;2.35;;;1.50;;
72493;SDS011;60520;49.182;-0.348;2023-11-18T02:57:05;2.85;;;1.60;;
72493;SDS011;60520;49.182;-0.348;2023-11-18T02:59:33;3.13;;;1.40;;
72493;SDS011;60520;49.182;-0.348;2023-11-18T03:02:02;2.00;;;1.20;;
72493;SDS011;60520;49.182;-0.348;2023-11-18T03:04:31;2.22;;;1.20;;
72493;SDS011;60520;49.182;-0.348;2023-11-18T03:06:59;2.67;;;1.38;;
72493;SDS011;60520;49.182;-0.348;2023-11-18T03:09:26;2.97;;;1.50;;
72493;SDS011;60520;49.182;-0.348;2023-11-18T03:11:53;2.90;;;1.20;;
72493;SDS011;60520;49.182;-0.348;2023-11-18T03:14:20;2.85;;;1.30;;
72493;SDS011;60520;49.182;-0.348;2023-11-18T03:16:48;3.65;;;1.10;;
72493;SDS011;60520;49.182;-0.348;2023-11-18T03:19:16;3.08;;;1.30;;
72493;SDS011;60520;49.182;-0.348;2023-11-18T03:21:44;2.00;;;1.27;;
72493;SDS011;60520;49.182;-0.348;2023-11-18T03:24:11;2.60;;;1.40;;
72493;SDS011;60520;49.182;-0.348;2023-11-18T03:26:38;3.05;;;1.48;;
72493;SDS011;60520;49.182;-0.348;2023-11-18T03:29:06;3.25;;;1.40;;
72493;SDS011;60520;49.182;-0.348;2023-11-18T03:31:35;2.88;;;1.40;;
72493;SDS011;60520;49.182;-0.348;2023-11-18T03:34:03;3.38;;;1.50;;
72493;SDS011;60520;49.182;-0.348;2023-11-18T03:36:31;2.83;;;1.20;;
72493;SDS011;60520;49.182;-0.348;2023-11-18T03:38:58;2.13;;;1.10;;
72493;SDS011;60520;49.182;-0.348;2023-11-18T03:41:26;2.15;;;1.20;;
72493;SDS011;60520;49.182;-0.348;2023-11-18T03:43:54;1.77;;;1.40;;
72493;SDS011;60520;49.182;-0.348;2023-11-18T03:46:21;2.30;;;1.27;;
72493;SDS011;60520;49.182;-0.348;2023-11-18T03:48:49;2.35;;;1.17;;
72493;SDS011;60520;49.182;-0.348;2023-11-18T03:51:16;2.40;;;1.15;;
72493;SDS011;60520;49.182;-0.348;2023-11-18T03:53:44;3.03;;;1.40;;
72493;SDS011;60520;49.182;-0.348;2023-11-18T03:56:16;2.17;;;1.38;;
72493;SDS011;60520;49.182;-0.348;2023-11-18T03:58:44;2.35;;;1.38;;
72493;SDS011;60520;49.182;-0.348;2023-11-18T04:01:18;1.90;;;1.30;;
72493;SDS011;60520;49.182;-0.348;2023-11-18T04:03:45;2.55;;;1.15;;
72493;SDS011;60520;49.182;-0.348;2023-11-18T04:06:13;3.80;;;1.30;;
72493;SDS011;60520;49.182;-0.348;2023-11-18T04:08:42;2.38;;;1.00;;
72493;SDS011;60520;49.182;-0.348;2023-11-18T04:11:10;2.72;;;1.30;;
72493;SDS011;60520;49.182;-0.348;2023-11-18T04:13:39;1.83;;;1.10;;
72493;SDS011;60520;49.182;-0.348;2023-11-18T04:16:09;1.67;;;1.10;;
72493;SDS011;60520;49.182;-0.348;2023-11-18T04:18:38;3.38;;;1.50;;
72493;SDS011;60520;49.182;-0.348;2023-11-18T04:21:06;1.88;;;1.00;;
72493;SDS011;60520;49.182;-0.348;2023-11-18T04:23:33;2.53;;;1.23;;
72493;SDS011;60520;49.182;-0.348;2023-11-18T04:26:01;2.50;;;1.30;;
72493;SDS011;60520;49.182;-0.348;2023-11-18T04:28:29;3.25;;;1.23;;
72493;SDS011;60520;49.182;-0.348;2023-11-18T04:30:57;1.48;;;1.00;;
72493;SDS011;60520;49.182;-0.348;2023-11-18T04:33:24;2.28;;;1.30;;
72493;SDS011;60520;49.182;-0.348;2023-11-18T04:35:51;3.20;;;1.50;;
72493;SDS011;60520;49.182;-0.348;2023-11-18T04:38:19;2.53;;;1.20;;
72493;SDS011;60520;49.182;-0.348;2023-11-18T04:40:46;1.73;;;0.98;;
72493;SDS011;60520;49.182;-0.348;2023-11-18T04:43:14;2.35;;;1.30;;
72493;SDS011;60520;49.182;-0.348;2023-11-18T04:45:43;2.13;;;1.20;;
72493;SDS011;60520;49.182;-0.348;2023-11-18T04:48:10;2.20;;;1.30;;
72493;SDS011;60520;49.182;-0.348;2023-11-18T04:50:38;3.20;;;1.13;;
72493;SDS011;60520;49.182;-0.348;2023-11-18T04:53:05;2.40;;;1.20;;
72493;SDS011;60520;49.182;-0.348;2023-11-18T04:55:35;2.03;;;1.20;;
72493;SDS011;60520;49.182;-0.348;2023-11-18T04:58:02;2.15;;;1.02;;
72493;SDS011;60520;49.182;-0.348;2023-11-18T05:00:31;2.78;;;1.10;;
72493;SDS011;60520;49.182;-0.348;2023-11-18T05:02:59;3.15;;;1.27;;
72493;SDS011;60520;49.182;-0.348;2023-11-18T05:05:28;1.55;;;0.93;;
72493;SDS011;60520;49.182;-0.348;2023-11-18T05:07:55;1.90;;;0.90;;
72493;SDS011;60520;49.182;-0.348;2023-11-18T05:10:22;1.70;;;1.00;;
72493;SDS011;60520;49.182;-0.348;2023-11-18T05:12:50;1.42;;;0.90;;
72493;SDS011;60520;49.182;-0.348;2023-11-18T05:15:20;1.20;;;0.95;;
72493;SDS011;60520;49.182;-0.348;2023-11-18T05:17:49;1.90;;;1.10;;
72493;SDS011;60520;49.182;-0.348;2023-11-18T05:20:18;1.55;;;1.00;;
72493;SDS011;60520;49.182;-0.348;2023-11-18T05:22:45;1.27;;;0.82;;
72493;SDS011;60520;49.182;-0.348;2023-11-18T05:25:12;2.50;;;1.13;;
72493;SDS011;60520;49.182;-0.348;2023-11-18T05:27:40;2.10;;;1.08;;
72493;SDS011;60520;49.182;-0.348;2023-11-18T05:30:08;1.10;;;0.80;;
72493;SDS011;60520;49.182;-0.348;2023-11-18T05:32:36;2.05;;;1.08;;
72493;SDS011;60520;49.182;-0.348;2023-11-18T05:35:03;2.25;;;1.02;;
72493;SDS011;60520;49.182;-0.348;2023-11-18T05:37:32;1.27;;;0.90;;
72493;SDS011;60520;49.182;-0.348;2023-11-18T05:40:03;2.28;;;1.10;;
72493;SDS011;60520;49.182;-0.348;2023-11-18T05:42:32;1.60;;;1.00;;
72493;SDS011;60520;49.182;-0.348;2023-11-18T05:45:01;1.70;;;1.00;;
72493;SDS011;60520;49.182;-0.348;2023-11-18T05:47:28;1.60;;;1.10;;
72493;SDS011;60520;49.182;-0.348;2023-11-18T05:49:55;1.95;;;0.90;;
72493;SDS011;60520;49.182;-0.348;2023-11-18T05:52:23;1.60;;;1.00;;
72493;SDS011;60520;49.182;-0.348;2023-11-18T05:54:51;1.80;;;1.00;;
72493;SDS011;60520;49.182;-0.348;2023-11-18T05:57:18;2.05;;;1.00;;
72493;SDS011;60520;49.182;-0.348;2023-11-18T05:59:46;1.50;;;0.82;;
72493;SDS011;60520;49.182;-0.348;2023-11-18T06:02:14;1.25;;;0.82;;
72493;SDS011;60520;49.182;-0.348;2023-11-18T06:04:43;1.73;;;0.80;;
72493;SDS011;60520;49.182;-0.348;2023-11-18T06:07:10;1.40;;;0.95;;
72493;SDS011;60520;49.182;-0.348;2023-11-18T06:09:38;1.60;;;0.90;;
72493;SDS011;60520;49.182;-0.348;2023-11-18T06:12:09;1.90;;;0.80;;
72493;SDS011;60520;49.182;-0.348;2023-11-18T06:14:36;1.85;;;0.85;;
72493;SDS011;60520;49.182;-0.348;2023-11-18T06:17:03;1.60;;;0.90;;
72493;SDS011;60520;49.182;-0.348;2023-11-18T06:19:32;1.67;;;1.00;;
72493;SDS011;60520;49.182;-0.348;2023-11-18T06:21:59;1.85;;;0.82;;
72493;SDS011;60520;49.182;-0.348;2023-11-18T06:24:26;1.60;;;0.95;;
72493;SDS011;60520;49.182;-0.348;2023-11-18T06:26:54;1.60;;;0.90;;
72493;SDS011;60520;49.182;-0.348;2023-11-18T06:29:22;2.53;;;1.00;;
72493;SDS011;60520;49.182;-0.348;2023-11-18T06:31:49;1.95;;;1.00;;
72493;SDS011;60520;49.182;-0.348;2023-11-18T06:34:17;1.85;;;0.88;;
72493;SDS011;60520;49.182;-0.348;2023-11-18T06:36:46;1.88;;;0.80;;
72493;SDS011;60520;49.182;-0.348;2023-11-18T06:39:13;1.10;;;0.70;;
72493;SDS011;60520;49.182;-0.348;2023-11-18T06:41:41;1.05;;;0.70;;
72493;SDS011;60520;49.182;-0.348;2023-11-18T06:44:13;1.73;;;0.90;;
72493;SDS011;60520;49.182;-0.348;2023-11-18T06:46:44;1.48;;;0.70;;
72493;SDS011;60520;49.182;-0.348;2023-11-18T06:49:11;2.13;;;0.80;;
72493;SDS011;60520;49.182;-0.348;2023-11-18T06:51:40;1.25;;;0.82;;
72493;SDS011;60520;49.182;-0.348;2023-11-18T06:54:07;1.05;;;0.73;;
72493;SDS011;60520;49.182;-0.348;2023-11-18T06:56:35;1.58;;;0.88;;
72493;SDS011;60520;49.182;-0.348;2023-11-18T06:59:02;1.85;;;0.85;;
72493;SDS011;60520;49.182;-0.348;2023-11-18T07:01:29;1.02;;;0.70;;
72493;SDS011;60520;49.182;-0.348;2023-11-18T07:03:58;1.92;;;0.95;;
72493;SDS011;60520;49.182;-0.348;2023-11-18T07:06:24;1.48;;;0.95;;
72493;SDS011;60520;49.182;-0.348;2023-11-18T07:08:52;0.75;;;0.63;;
72493;SDS011;60520;49.182;-0.348;2023-11-18T07:11:20;1.30;;;0.60;;
72493;SDS011;60520;49.182;-0.348;2023-11-18T07:13:47;1.05;;;0.70;;
72493;SDS011;60520;49.182;-0.348;2023-11-18T07:16:15;1.30;;;0.70;;
72493;SDS011;60520;49.182;-0.348;2023-11-18T07:18:43;1.02;;;0.70;;
72493;SDS011;60520;49.182;-0.348;2023-11-18T07:21:12;0.90;;;0.60;;
72493;SDS011;60520;49.182;-0.348;2023-11-18T07:23:39;1.23;;;0.80;;
72493;SDS011;60520;49.182;-0.348;2023-11-18T07:26:07;1.90;;;0.70;;
72493;SDS011;60520;49.182;-0.348;2023-11-18T07:28:35;1.25;;;0.70;;
72493;SDS011;60520;49.182;-0.348;2023-11-18T07:31:02;1.15;;;0.75;;
72493;SDS011;60520;49.182;-0.348;2023-11-18T07:33:30;1.00;;;0.70;;
72493;SDS011;60520;49.182;-0.348;2023-11-18T07:35:57;1.10;;;0.70;;
72493;SDS011;60520;49.182;-0.348;2023-11-18T07:38:26;1.17;;;0.80;;
72493;SDS011;60520;49.182;-0.348;2023-11-18T07:40:54;1.02;;;0.75;;
72493;SDS011;60520;49.182;-0.348;2023-11-18T07:43:22;1.27;;;0.90;;
72493;SDS011;60520;49.182;-0.348;2023-11-18T07:45:49;1.27;;;0.80;;
72493;SDS011;60520;49.182;-0.348;2023-11-18T07:48:18;1.05;;;0.60;;
72493;SDS011;60520;49.182;-0.348;2023-11-18T07:50:46;3.10;;;0.82;;
72493;SDS011;60520;49.182;-0.348;2023-11-18T07:53:13;2.15;;;0.75;;
72493;SDS011;60520;49.182;-0.348;2023-11-18T07:55:42;1.52;;;0.70;;
72493;SDS011;60520;49.182;-0.348;2023-11-18T07:58:10;1.73;;;0.80;;
72493;SDS011;60520;49.182;-0.348;2023-11-18T08:00:37;2.20;;;0.70;;
72493;SDS011;60520;49.182;-0.348;2023-11-18T08:03:05;1.38;;;0.70;;
72493;SDS011;60520;49.182;-0.348;2023-11-18T08:05:36;1.00;;;0.70;;
72493;SDS011;60520;49.182;-0.348;2023-11-18T08:08:04;1.08;;;0.80;;
72493;SDS011;60520;49.182;-0.348;2023-11-18T08:10:32;0.88;;;0.55;;
72493;SDS011;60520;49.182;-0.348;2023-11-18T08:13:04;1.10;;;0.60;;
72493;SDS011;60520;49.182;-0.348;2023-11-18T08:15:32;1.23;;;0.60;;
72493;SDS011;60520;49.182;-0.348;2023-11-18T08:17:59;0.90;;;0.60;;
72493;SDS011;60520;49.182;-0.348;2023-11-18T08:20:26;1.67;;;0.80;;
72493;SDS011;60520;49.182;-0.348;2023-11-18T08:22:53;0.88;;;0.57;;
72493;SDS011;60520;49.182;-0.348;2023-11-18T08:25:21;2.88;;;0.60;;
72493;SDS011;60520;49.182;-0.348;2023-11-18T08:27:48;1.65;;;0.60;;
72493;SDS011;60520;49.182;-0.348;2023-11-18T08:30:16;2.15;;;0.80;;
72493;SDS011;60520;49.182;-0.348;2023-11-18T08:32:45;3.78;;;1.00;;
72493;SDS011;60520;49.182;-0.348;2023-11-18T08:35:13;5.40;;;1.15;;
72493;SDS011;60520;49.182;-0.348;2023-11-18T08:37:41;3.47;;;1.00;;
72493;SDS011;60520;49.182;-0.348;2023-11-18T08:40:09;7.85;;;1.08;;
72493;SDS011;60520;49.182;-0.348;2023-11-18T08:42:39;4.95;;;0.98;;
72493;SDS011;60520;49.182;-0.348;2023-11-18T08:45:12;2.08;;;0.60;;
72493;SDS011;60520;49.182;-0.348;2023-11-18T08:47:43;1.10;;;0.70;;
72493;SDS011;60520;49.182;-0.348;2023-11-18T08:50:11;3.90;;;1.10;;
72493;SDS011;60520;49.182;-0.348;2023-11-18T08:52:38;2.72;;;1.27;;
72493;SDS011;60520;49.182;-0.348;2023-11-18T08:55:09;4.38;;;1.63;;
72493;SDS011;60520;49.182;-0.348;2023-11-18T08:57:42;8.60;;;2.40;;
72493;SDS011;60520;49.182;-0.348;2023-11-18T09:00:23;6.45;;;2.40;;
72493;SDS011;60520;49.182;-0.348;2023-11-18T09:03:09;5.28;;;2.80;;
72493;SDS011;60520;49.182;-0.348;2023-11-18T09:05:42;8.25;;;3.03;;
72493;SDS011;60520;49.182;-0.348;2023-11-18T09:08:21;7.43;;;3.53;;
72493;SDS011;60520;49.182;-0.348;2023-11-18T09:10:48;8.07;;;3.17;;
72493;SDS011;60520;49.182;-0.348;2023-11-18T09:13:18;5.93;;;3.42;;
72493;SDS011;60520;49.182;-0.348;2023-11-18T09:15:45;5.53;;;2.90;;
72493;SDS011;60520;49.182;-0.348;2023-11-18T09:18:14;6.57;;;3.35;;
72493;SDS011;60520;49.182;-0.348;2023-11-18T09:20:43;6.85;;;3.10;;
72493;SDS011;60520;49.182;-0.348;2023-11-18T09:23:11;4.68;;;2.67;;
72493;SDS011;60520;49.182;-0.348;2023-11-18T09:25:40;5.13;;;2.80;;
72493;SDS011;60520;49.182;-0.348;2023-11-18T09:28:11;8.45;;;2.90;;
72493;SDS011;60520;49.182;-0.348;2023-11-18T09:30:39;7.53;;;2.92;;
72493;SDS011;60520;49.182;-0.348;2023-11-18T09:33:16;4.88;;;2.80;;
72493;SDS011;60520;49.182;-0.348;2023-11-18T09:35:50;5.03;;;2.65;;
72493;SDS011;60520;49.182;-0.348;2023-11-18T09:38:20;3.92;;;2.30;;
72493;SDS011;60520;49.182;-0.348;2023-11-18T09:40:48;7.65;;;2.90;;
72493;SDS011;60520;49.182;-0.348;2023-11-18T09:43:17;5.70;;;2.60;;
72493;SDS011;60520;49.182;-0.348;2023-11-18T09:45:47;5.78;;;2.45;;
72493;SDS011;60520;49.182;-0.348;2023-11-18T09:48:17;5.60;;;2.40;;
72493;SDS011;60520;49.182;-0.348;2023-11-18T09:50:51;5.25;;;2.30;;
72493;SDS011;60520;49.182;-0.348;2023-11-18T09:53:18;3.85;;;2.10;;
72493;SDS011;60520;49.182;-0.348;2023-11-18T09:55:49;5.03;;;2.30;;
72493;SDS011;60520;49.182;-0.348;2023-11-18T09:58:20;5.25;;;2.20;;
72493;SDS011;60520;49.182;-0.348;2023-11-18T10:00:52;4.22;;;2.00;;
72493;SDS011;60520;49.182;-0.348;2023-11-18T10:03:28;4.72;;;2.20;;
72493;SDS011;60520;49.182;-0.348;2023-11-18T10:05:56;4.28;;;2.33;;
72493;SDS011;60520;49.182;-0.348;2023-11-18T10:08:29;3.92;;;2.40;;
72493;SDS011;60520;49.182;-0.348;2023-11-18T10:10:57;4.43;;;2.03;;
72493;SDS011;60520;49.182;-0.348;2023-11-18T10:13:33;3.58;;;1.80;;
72493;SDS011;60520;49.182;-0.348;2023-11-18T10:16:05;4.10;;;2.20;;
72493;SDS011;60520;49.182;-0.348;2023-11-18T10:18:34;4.10;;;2.10;;
72493;SDS011;60520;49.182;-0.348;2023-11-18T10:21:02;3.90;;;1.88;;
72493;SDS011;60520;49.182;-0.348;2023-11-18T10:23:33;3.22;;;1.80;;
72493;SDS011;60520;49.182;-0.348;2023-11-18T10:26:02;3.50;;;1.75;;
72493;SDS011;60520;49.182;-0.348;2023-11-18T10:28:30;2.15;;;1.33;;
72493;SDS011;60520;49.182;-0.348;2023-11-18T10:30:59;3.15;;;1.70;;
72493;SDS011;60520;49.182;-0.348;2023-11-18T10:33:28;4.85;;;1.90;;
72493;SDS011;60520;49.182;-0.348;2023-11-18T10:35:58;3.90;;;1.80;;
72493;SDS011;60520;49.182;-0.348;2023-11-18T10:38:28;3.45;;;1.88;;
72493;SDS011;60520;49.182;-0.348;2023-11-18T10:40:56;3.58;;;1.63;;
72493;SDS011;60520;49.182;-0.348;2023-11-18T10:43:26;4.20;;;1.50;;
72493;SDS011;60520;49.182;-0.348;2023-11-18T10:46:04;4.70;;;1.52;;
72493;SDS011;60520;49.182;-0.348;2023-11-18T10:48:36;2.20;;;1.38;;
72493;SDS011;60520;49.182;-0.348;2023-11-18T10:51:07;3.22;;;1.67;;
72493;SDS011;60520;49.182;-0.348;2023-11-18T10:53:37;2.95;;;1.52;;
72493;SDS011;60520;49.182;-0.348;2023-11-18T10:56:04;5.07;;;1.88;;
72493;SDS011;60520;49.182;-0.348;2023-11-18T10:58:35;2.72;;;1.60;;
72493;SDS011;60520;49.182;-0.348;2023-11-18T11:01:05;2.45;;;1.52;;
72493;SDS011;60520;49.182;-0.348;2023-11-18T11:03:37;2.78;;;1.40;;
72493;SDS011;60520;49.182;-0.348;2023-11-18T11:06:22;4.10;;;1.77;;
72493;SDS011;60520;49.182;-0.348;2023-11-18T11:08:50;2.58;;;1.40;;
72493;SDS011;60520;49.182;-0.348;2023-11-18T11:11:18;3.08;;;1.58;;
72493;SDS011;60520;49.182;-0.348;2023-11-18T11:13:46;2.55;;;1.48;;
72493;SDS011;60520;49.182;-0.348;2023-11-18T11:16:14;3.58;;;1.45;;
72493;SDS011;60520;49.182;-0.348;2023-11-18T11:18:44;3.15;;;1.50;;
72493;SDS011;60520;49.182;-0.348;2023-11-18T11:21:19;2.75;;;1.40;;
72493;SDS011;60520;49.182;-0.348;2023-11-18T11:23:53;5.13;;;1.77;;
72493;SDS011;60520;49.182;-0.348;2023-11-18T11:26:23;4.13;;;1.60;;
72493;SDS011;60520;49.182;-0.348;2023-11-18T11:28:57;2.63;;;1.38;;
72493;SDS011;60520;49.182;-0.348;2023-11-18T11:31:26;2.42;;;1.45;;
72493;SDS011;60520;49.182;-0.348;2023-11-18T11:33:55;2.97;;;1.50;;
72493;SDS011;60520;49.182;-0.348;2023-11-18T11:36:25;4.20;;;1.23;;
72493;SDS011;60520;49.182;-0.348;2023-11-18T11:38:59;2.78;;;1.30;;
72493;SDS011;60520;49.182;-0.348;2023-11-18T11:41:28;2.60;;;1.30;;
72493;SDS011;60520;49.182;-0.348;2023-11-18T11:43:59;2.35;;;1.50;;
72493;SDS011;60520;49.182;-0.348;2023-11-18T11:46:31;2.60;;;1.45;;
72493;SDS011;60520;49.182;-0.348;2023-11-18T11:49:00;1.75;;;1.10;;
72493;SDS011;60520;49.182;-0.348;2023-11-18T11:51:39;2.83;;;1.40;;
72493;SDS011;60520;49.182;-0.348;2023-11-18T11:54:10;3.13;;;1.40;;
72493;SDS011;60520;49.182;-0.348;2023-11-18T11:56:41;3.00;;;1.27;;
72493;SDS011;60520;49.182;-0.348;2023-11-18T11:59:09;2.08;;;1.08;;
72493;SDS011;60520;49.182;-0.348;2023-11-18T12:01:37;2.47;;;1.35;;
72493;SDS011;60520;49.182;-0.348;2023-11-18T12:04:07;1.88;;;1.00;;
72493;SDS011;60520;49.182;-0.348;2023-11-18T12:06:46;3.60;;;1.33;;
72493;SDS011;60520;49.182;-0.348;2023-11-18T12:09:19;2.50;;;1.30;;
72493;SDS011;60520;49.182;-0.348;2023-11-18T12:11:46;2.38;;;1.20;;
72493;SDS011;60520;49.182;-0.348;2023-11-18T12:14:15;2.35;;;1.20;;
72493;SDS011;60520;49.182;-0.348;2023-11-18T12:17:06;2.45;;;1.10;;
72493;SDS011;60520;49.182;-0.348;2023-11-18T12:19:35;2.13;;;1.30;;
72493;SDS011;60520;49.182;-0.348;2023-11-18T12:22:13;1.98;;;1.23;;
72493;SDS011;60520;49.182;-0.348;2023-11-18T12:27:43;1.38;;;0.90;;
72493;SDS011;60520;49.182;-0.348;2023-11-18T12:33:04;2.83;;;1.27;;
72493;SDS011;60520;49.182;-0.348;2023-11-18T12:35:35;1.95;;;1.10;;
72493;SDS011;60520;49.182;-0.348;2023-11-18T12:38:13;2.85;;;1.50;;
72493;SDS011;60520;49.182;-0.348;2023-11-18T12:40:53;3.38;;;1.00;;
72493;SDS011;60520;49.182;-0.348;2023-11-18T12:43:27;2.97;;;1.25;;
72493;SDS011;60520;49.182;-0.348;2023-11-18T12:46:20;2.65;;;1.40;;
72493;SDS011;60520;49.182;-0.348;2023-11-18T12:48:53;1.92;;;1.10;;
72493;SDS011;60520;49.182;-0.348;2023-11-18T12:51:25;2.00;;;1.08;;
72493;SDS011;60520;49.182;-0.348;2023-11-18T12:53:52;2.97;;;1.38;;
72493;SDS011;60520;49.182;-0.348;2023-11-18T12:56:21;1.88;;;1.05;;
72493;SDS011;60520;49.182;-0.348;2023-11-18T12:58:49;2.75;;;1.02;;
72493;SDS011;60520;49.182;-0.348;2023-11-18T13:01:17;2.40;;;1.33;;
72493;SDS011;60520;49.182;-0.348;2023-11-18T13:03:44;2.65;;;1.10;;
72493;SDS011;60520;49.182;-0.348;2023-11-18T13:06:12;2.10;;;1.00;;
72493;SDS011;60520;49.182;-0.348;2023-11-18T13:08:39;3.08;;;1.13;;
72493;SDS011;60520;49.182;-0.348;2023-11-18T13:11:07;2.03;;;0.90;;
72493;SDS011;60520;49.182;-0.348;2023-11-18T13:13:42;2.65;;;1.10;;
72493;SDS011;60520;49.182;-0.348;2023-11-18T13:16:09;2.50;;;1.20;;
72493;SDS011;60520;49.182;-0.348;2023-11-18T13:18:42;3.72;;;1.30;;
72493;SDS011;60520;49.182;-0.348;2023-11-18T13:21:15;3.75;;;1.10;;
72493;SDS011;60520;49.182;-0.348;2023-11-18T13:23:46;3.22;;;1.25;;
72493;SDS011;60520;49.182;-0.348;2023-11-18T13:26:14;2.92;;;1.10;;
72493;SDS011;60520;49.182;-0.348;2023-11-18T13:28:42;2.67;;;1.27;;
72493;SDS011;60520;49.182;-0.348;2023-11-18T13:31:09;4.43;;;1.05;;
72493;SDS011;60520;49.182;-0.348;2023-11-18T13:33:41;3.55;;;1.08;;
72493;SDS011;60520;49.182;-0.348;2023-11-18T13:36:09;3.03;;;1.10;;
72493;SDS011;60520;49.182;-0.348;2023-11-18T13:38:36;1.77;;;1.02;;
72493;SDS011;60520;49.182;-0.348;2023-11-18T13:41:03;3.85;;;0.90;;
72493;SDS011;60520;49.182;-0.348;2023-11-18T13:43:44;2.35;;;1.10;;
72493;SDS011;60520;49.182;-0.348;2023-11-18T13:46:12;2.78;;;1.17;;
72493;SDS011;60520;49.182;-0.348;2023-11-18T13:48:40;1.55;;;0.88;;
72493;SDS011;60520;49.182;-0.348;2023-11-18T13:51:08;4.72;;;1.20;;
72493;SDS011;60520;49.182;-0.348;2023-11-18T13:53:37;4.43;;;1.13;;
72493;SDS011;60520;49.182;-0.348;2023-11-18T13:56:05;2.60;;;1.17;;
72493;SDS011;60520;49.182;-0.348;2023-11-18T13:58:34;2.55;;;1.20;;
72493;SDS011;60520;49.182;-0.348;2023-11-18T14:01:05;3.30;;;1.10;;
72493;SDS011;60520;49.182;-0.348;2023-11-18T14:03:34;1.73;;;1.05;;
72493;SDS011;60520;49.182;-0.348;2023-11-18T14:06:02;2.58;;;1.00;;
72493;SDS011;60520;49.182;-0.348;2023-11-18T14:08:29;2.72;;;1.00;;
72493;SDS011;60520;49.182;-0.348;2023-11-18T14:10:57;2.78;;;1.10;;
72493;SDS011;60520;49.182;-0.348;2023-11-18T14:13:24;3.05;;;0.98;;
72493;SDS011;60520;49.182;-0.348;2023-11-18T14:15:55;3.63;;;1.00;;
72493;SDS011;60520;49.182;-0.348;2023-11-18T14:18:24;5.43;;;1.02;;
72493;SDS011;60520;49.182;-0.348;2023-11-18T14:20:52;3.25;;;1.10;;
72493;SDS011;60520;49.182;-0.348;2023-11-18T14:23:19;3.17;;;1.00;;
72493;SDS011;60520;49.182;-0.348;2023-11-18T14:25:47;3.47;;;1.13;;
72493;SDS011;60520;49.182;-0.348;2023-11-18T14:28:15;3.85;;;0.90;;
72493;SDS011;60520;49.182;-0.348;2023-11-18T14:30:42;2.40;;;1.05;;
72493;SDS011;60520;49.182;-0.348;2023-11-18T14:33:10;4.05;;;1.00;;
72493;SDS011;60520;49.182;-0.348;2023-11-18T14:35:38;2.28;;;1.02;;
72493;SDS011;60520;49.182;-0.348;2023-11-18T14:38:05;3.50;;;1.10;;
72493;SDS011;60520;49.182;-0.348;2023-11-18T14:40:35;2.00;;;0.90;;
72493;SDS011;60520;49.182;-0.348;2023-11-18T14:43:03;1.52;;;0.93;;
72493;SDS011;60520;49.182;-0.348;2023-11-18T14:45:30;4.45;;;0.95;;
72493;SDS011;60520;49.182;-0.348;2023-11-18T14:47:57;1.58;;;0.90;;
72493;SDS011;60520;49.182;-0.348;2023-11-18T14:50:25;4.72;;;1.10;;